createdAt,value
2024-02-22T00:00:27.801Z,12.50
2024-02-22T00:03:15.325Z,12.87
2024-02-22T00:06:03.674Z,13.80
2024-02-22T00:08:50.937Z,12.73
2024-02-22T00:11:38.452Z,12.77
2024-02-22T00:14:26.005Z,12.30
2024-02-22T00:17:13.652Z,13.13
2024-02-22T00:20:02.683Z,12.43
2024-02-22T00:22:50.278Z,11.90
2024-02-22T00:25:38.234Z,12.40
2024-02-22T00:28:26.117Z,12.03
2024-02-22T00:31:13.686Z,11.77
2024-02-22T00:34:00.979Z,11.80
2024-02-22T00:36:57.498Z,12.57
2024-02-22T00:39:47.360Z,12.60
2024-02-22T00:42:35.201Z,12.17
2024-02-22T00:45:22.477Z,12.40
2024-02-22T00:48:10.209Z,11.80
2024-02-22T00:50:57.682Z,11.97
2024-02-22T00:53:45.520Z,11.47
2024-02-22T00:56:32.994Z,11.83
2024-02-22T00:59:20.443Z,12.17
2024-02-22T01:02:08.616Z,12.33
2024-02-22T01:04:56.155Z,11.23
2024-02-22T01:07:43.831Z,11.47
2024-02-22T01:10:31.499Z,12.40
2024-02-22T01:13:19.032Z,11.57
2024-02-22T01:16:07.244Z,11.50
2024-02-22T01:18:54.782Z,11.63
2024-02-22T01:21:42.546Z,11.67
2024-02-22T01:24:30.056Z,11.83
2024-02-22T01:27:17.605Z,11.57
2024-02-22T01:30:05.872Z,11.30
2024-02-22T01:32:53.727Z,11.77
2024-02-22T01:35:41.015Z,10.77
2024-02-22T01:38:28.458Z,11.17
2024-02-22T01:41:17.026Z,11.30
2024-02-22T01:44:04.849Z,11.27
2024-02-22T01:46:52.518Z,11.37
2024-02-22T01:49:40.299Z,10.87
2024-02-22T01:52:29.800Z,10.83
2024-02-22T01:55:19.153Z,10.33
2024-02-22T01:58:06.596Z,11.27
2024-02-22T02:00:54.226Z,11.33
2024-02-22T02:03:41.532Z,11.23
2024-02-22T02:06:29.147Z,10.40
2024-02-22T02:09:17.754Z,10.17
2024-02-22T02:12:06.125Z,9.97
2024-02-22T02:14:55.517Z,10.47
2024-02-22T02:17:44.914Z,10.43
2024-02-22T02:20:40.404Z,10.30
2024-02-22T02:23:58.642Z,9.53
2024-02-22T02:26:46.527Z,9.73
2024-02-22T02:29:34.118Z,9.27
2024-02-22T02:32:21.557Z,10.30
2024-02-22T02:35:09.412Z,10.10
2024-02-22T02:37:59.640Z,10.03
2024-02-22T02:40:47.289Z,9.87
2024-02-22T02:43:34.690Z,10.20
2024-02-22T02:46:22.082Z,9.87
2024-02-22T02:49:09.459Z,9.83
2024-02-22T02:51:56.812Z,9.07
2024-02-22T02:54:44.397Z,9.97
2024-02-22T02:57:32.109Z,9.30
2024-02-22T03:00:19.770Z,10.20
2024-02-22T03:03:07.410Z,9.83
2024-02-22T03:05:55.109Z,9.27
2024-02-22T03:08:42.652Z,10.10
2024-02-22T03:11:30.150Z,9.80
2024-02-22T03:14:17.643Z,10.03
2024-02-22T03:17:05.029Z,9.50
2024-02-22T03:19:53.493Z,10.07
2024-02-22T03:22:41.939Z,10.30
2024-02-22T03:25:29.590Z,10.43
2024-02-22T03:28:17.520Z,10.73
2024-02-22T03:31:05.617Z,10.17
2024-02-22T03:33:52.837Z,10.10
2024-02-22T03:36:43.120Z,10.87
2024-02-22T03:39:30.677Z,10.03
2024-02-22T03:42:18.723Z,10.60
2024-02-22T03:45:06.790Z,10.40
2024-02-22T03:47:54.397Z,10.53
2024-02-22T03:50:44.844Z,10.00
2024-02-22T03:53:32.506Z,10.23
2024-02-22T03:56:20.905Z,10.00
2024-02-22T03:59:08.591Z,10.43
2024-02-22T04:01:56.136Z,10.83
2024-02-22T04:04:54.861Z,9.87
2024-02-22T04:07:43.837Z,10.47
2024-02-22T04:10:31.207Z,10.23
2024-02-22T04:13:19.154Z,9.97
2024-02-22T04:16:07.070Z,9.77
2024-02-22T04:18:54.794Z,10.20
2024-02-22T04:21:45.552Z,9.97
2024-02-22T04:24:32.861Z,10.10
2024-02-22T04:27:20.191Z,9.87
2024-02-22T04:30:08.425Z,10.27
2024-02-22T04:32:55.847Z,10.33
2024-02-22T04:35:46.874Z,10.07
2024-02-22T04:38:35.677Z,10.77
2024-02-22T04:41:23.415Z,10.17
2024-02-22T04:44:11.197Z,9.87
2024-02-22T04:46:58.521Z,10.03
2024-02-22T04:49:45.861Z,9.90
2024-02-22T04:52:33.349Z,9.67
2024-02-22T04:55:21.274Z,9.83
2024-02-22T04:58:08.701Z,10.17
2024-02-22T05:00:56.878Z,9.87
2024-02-22T05:03:44.761Z,10.33
2024-02-22T05:06:32.384Z,9.87
2024-02-22T05:09:20.537Z,9.40
2024-02-22T05:12:08.927Z,10.57
2024-02-22T05:14:56.694Z,9.50
2024-02-22T05:17:44.103Z,9.33
2024-02-22T05:20:31.653Z,9.93
2024-02-22T05:23:19.348Z,10.07
2024-02-22T05:26:06.849Z,10.33
2024-02-22T05:28:54.810Z,10.70
2024-02-22T05:31:42.610Z,10.00
2024-02-22T05:34:29.979Z,10.13
2024-02-22T05:37:17.510Z,9.97
2024-02-22T05:40:09.547Z,10.10
2024-02-22T05:42:57.303Z,10.83
2024-02-22T05:45:48.436Z,10.77
2024-02-22T05:48:36.169Z,10.37
2024-02-22T05:51:23.562Z,10.53
2024-02-22T05:54:11.173Z,10.20
2024-02-22T05:56:58.472Z,10.23
2024-02-22T05:59:46.129Z,10.70
2024-02-22T06:02:33.627Z,10.00
2024-02-22T06:05:21.065Z,10.53
2024-02-22T06:08:08.878Z,10.50
2024-02-22T06:10:56.578Z,10.50
2024-02-22T06:13:44.502Z,9.93
2024-02-22T06:16:31.951Z,9.77
2024-02-22T06:19:19.486Z,10.30
2024-02-22T06:22:06.932Z,9.90
2024-02-22T06:24:54.337Z,10.27
2024-02-22T06:27:46.707Z,10.10
2024-02-22T06:30:34.031Z,10.13
2024-02-22T06:33:23.230Z,10.53
2024-02-22T06:36:11.330Z,10.03
2024-02-22T06:38:58.844Z,10.17
2024-02-22T06:41:46.578Z,10.23
2024-02-22T06:44:33.858Z,9.93
2024-02-22T06:47:21.438Z,9.77
2024-02-22T06:50:09.100Z,9.97
2024-02-22T06:52:56.611Z,11.87
2024-02-22T06:55:44.816Z,9.90
2024-02-22T06:58:32.234Z,8.90
2024-02-22T07:01:19.892Z,8.53
2024-02-22T07:04:09.869Z,8.50
2024-02-22T07:06:58.494Z,8.83
2024-02-22T07:09:45.841Z,8.53
2024-02-22T07:12:33.830Z,8.10
2024-02-22T07:15:21.575Z,8.17
2024-02-22T07:18:09.332Z,8.13
2024-02-22T07:20:59.120Z,7.63
2024-02-22T07:23:47.171Z,7.07
2024-02-22T07:26:34.944Z,7.33
2024-02-22T07:29:22.934Z,7.10
2024-02-22T07:32:10.282Z,6.87
2024-02-22T07:34:57.793Z,6.40
2024-02-22T07:37:45.079Z,6.70
2024-02-22T07:40:33.133Z,6.53
2024-02-22T07:43:20.622Z,6.33
2024-02-22T07:46:07.974Z,6.23
2024-02-22T07:48:57.192Z,6.37
2024-02-22T07:51:53.710Z,6.30
2024-02-22T07:54:48.858Z,6.27
2024-02-22T07:57:37.067Z,6.13
2024-02-22T08:00:25.114Z,6.67
2024-02-22T08:03:13.903Z,6.07
2024-02-22T08:06:01.486Z,5.60
2024-02-22T08:08:49.486Z,5.47
2024-02-22T08:11:37.077Z,5.53
2024-02-22T08:14:25.050Z,5.70
2024-02-22T08:17:17.793Z,5.60
2024-02-22T08:20:08.269Z,5.50
2024-02-22T08:22:56.448Z,5.77
2024-02-22T08:25:44.470Z,5.07
2024-02-22T08:28:34.142Z,5.47
2024-02-22T08:31:24.419Z,5.57
2024-02-22T08:34:14.747Z,5.03
2024-02-22T08:37:02.182Z,5.03
2024-02-22T08:39:50.522Z,5.33
2024-02-22T08:42:38.423Z,5.50
2024-02-22T08:45:26.394Z,5.70
2024-02-22T08:48:16.272Z,4.77
2024-02-22T08:51:04.656Z,4.97
2024-02-22T08:53:52.238Z,5.03
2024-02-22T08:56:39.676Z,5.10
2024-02-22T08:59:26.969Z,5.17
2024-02-22T09:02:15.333Z,4.70
2024-02-22T09:05:03.498Z,4.73
2024-02-22T09:07:52.714Z,5.17
2024-02-22T09:10:40.575Z,4.80
2024-02-22T09:13:28.049Z,5.17
2024-02-22T09:16:15.683Z,4.97
2024-02-22T09:19:03.415Z,5.10
2024-02-22T09:21:51.704Z,4.97
2024-02-22T09:24:43.340Z,4.50
2024-02-22T09:27:31.961Z,4.73
2024-02-22T09:30:19.364Z,5.33
2024-02-22T09:33:09.132Z,4.40
2024-02-22T09:35:57.450Z,4.63
2024-02-22T09:38:45.111Z,4.90
2024-02-22T09:41:32.790Z,4.70
2024-02-22T09:44:21.060Z,4.53
2024-02-22T09:47:09.835Z,4.83
2024-02-22T09:49:58.509Z,4.70
2024-02-22T09:52:47.479Z,4.50
2024-02-22T09:55:36.680Z,5.00
2024-02-22T09:58:25.042Z,4.60
2024-02-22T10:01:12.377Z,5.10
2024-02-22T10:04:13.393Z,4.37
2024-02-22T10:07:01.930Z,4.50
2024-02-22T10:09:53.969Z,4.30
2024-02-22T10:12:46.102Z,4.20
2024-02-22T10:15:35.031Z,4.10
2024-02-22T10:18:26.807Z,4.10
2024-02-22T10:21:18.834Z,4.23
2024-02-22T10:24:07.255Z,4.40
2024-02-22T10:27:07.460Z,4.70
2024-02-22T10:29:57.491Z,4.63
2024-02-22T10:32:47.162Z,4.40
2024-02-22T10:35:36.225Z,4.03
2024-02-22T10:38:23.695Z,4.60
2024-02-22T10:41:12.359Z,4.40
2024-02-22T10:44:03.429Z,4.17
2024-02-22T10:46:52.634Z,4.60
2024-02-22T10:49:40.577Z,4.53
2024-02-22T10:52:28.825Z,4.57
2024-02-22T10:55:17.922Z,4.40
2024-02-22T10:58:07.179Z,3.97
2024-02-22T11:00:56.496Z,4.20
2024-02-22T11:03:45.571Z,4.10
2024-02-22T11:06:40.619Z,4.13
2024-02-22T11:09:28.091Z,3.67
2024-02-22T11:12:17.404Z,4.03
2024-02-22T11:15:08.402Z,3.80
2024-02-22T11:17:58.986Z,3.90
2024-02-22T11:20:46.984Z,4.10
2024-02-22T11:23:35.693Z,4.17
2024-02-22T11:26:23.562Z,4.00
2024-02-22T11:29:11.254Z,4.50
2024-02-22T11:32:06.269Z,4.40
2024-02-22T11:34:57.461Z,4.13
2024-02-22T11:37:48.689Z,4.10
2024-02-22T11:40:37.026Z,4.47
2024-02-22T11:43:27.306Z,5.70
2024-02-22T11:46:14.673Z,4.70
2024-02-22T11:49:03.046Z,3.90
2024-02-22T11:51:51.220Z,4.30
2024-02-22T11:54:39.542Z,4.40
2024-02-22T11:57:27.127Z,4.43
2024-02-22T12:00:15.298Z,4.00
2024-02-22T12:03:03.991Z,3.80
2024-02-22T12:05:52.204Z,3.90
2024-02-22T12:08:40.008Z,3.80
2024-02-22T12:11:27.764Z,3.80
2024-02-22T12:14:15.586Z,3.87
2024-02-22T12:17:03.301Z,4.33
2024-02-22T12:19:54.366Z,4.00
2024-02-22T12:22:46.536Z,3.83
2024-02-22T12:25:40.696Z,3.90
2024-02-22T12:28:28.751Z,3.77
2024-02-22T12:31:19.981Z,4.40
2024-02-22T12:34:08.074Z,3.77
2024-02-22T12:36:55.505Z,3.97
2024-02-22T12:39:43.079Z,4.17
2024-02-22T12:42:31.414Z,3.97
2024-02-22T12:45:21.107Z,3.93
2024-02-22T12:48:13.832Z,4.17
2024-02-22T12:51:01.423Z,3.90
2024-02-22T12:53:49.830Z,4.00
2024-02-22T12:56:37.524Z,3.97
2024-02-22T12:59:30.213Z,4.00
2024-02-22T13:02:17.806Z,4.30
2024-02-22T13:05:06.601Z,3.80
2024-02-22T13:07:57.527Z,4.20
2024-02-22T13:10:45.755Z,3.87
2024-02-22T13:13:34.224Z,4.23
2024-02-22T13:16:24.384Z,4.37
2024-02-22T13:19:12.557Z,4.40
2024-02-22T13:22:00.810Z,4.27
2024-02-22T13:24:48.702Z,4.30
2024-02-22T13:27:36.994Z,4.90
2024-02-22T13:30:25.644Z,4.67
2024-02-22T13:33:16.579Z,4.50
2024-02-22T13:36:04.672Z,4.60
2024-02-22T13:38:52.334Z,4.33
2024-02-22T13:41:40.102Z,4.70
2024-02-22T13:44:31.009Z,4.53
2024-02-22T13:47:19.026Z,4.60
2024-02-22T13:50:07.328Z,4.33
2024-02-22T13:52:55.025Z,4.70
2024-02-22T13:55:42.411Z,4.37
2024-02-22T13:58:33.460Z,4.53
2024-02-22T14:01:21.125Z,4.33
2024-02-22T14:04:08.694Z,4.50
2024-02-22T14:06:57.614Z,4.87
2024-02-22T14:09:45.876Z,4.43
2024-02-22T14:12:34.221Z,4.40
2024-02-22T14:15:21.465Z,4.60
2024-02-22T14:18:09.081Z,4.77
2024-02-22T14:20:56.895Z,5.60
2024-02-22T14:23:44.672Z,4.53
2024-02-22T14:26:32.247Z,5.27
2024-02-22T14:29:20.774Z,5.40
2024-02-22T14:32:11.408Z,5.40
2024-02-22T14:34:59.655Z,5.40
2024-02-22T14:37:46.961Z,5.00
2024-02-22T14:40:34.243Z,5.30
2024-02-22T14:43:23.219Z,5.30
2024-02-22T14:46:10.932Z,5.43
2024-02-22T14:48:58.317Z,5.30
2024-02-22T14:51:45.559Z,5.63
2024-02-22T14:54:33.035Z,5.23
2024-02-22T14:57:20.309Z,5.20
2024-02-22T15:00:12.344Z,5.20
2024-02-22T15:02:59.501Z,5.50
2024-02-22T15:05:46.897Z,5.97
2024-02-22T15:08:37.207Z,5.80
2024-02-22T15:11:25.231Z,6.27
2024-02-22T15:14:13.241Z,6.10
2024-02-22T15:17:01.724Z,5.13
2024-02-22T15:19:53.315Z,5.50
2024-02-22T15:22:41.378Z,5.90
2024-02-22T15:25:28.845Z,6.20
2024-02-22T15:28:16.922Z,5.67
2024-02-22T15:31:04.354Z,5.60
2024-02-22T15:33:58.012Z,5.83
2024-02-22T15:36:48.572Z,5.67
2024-02-22T15:39:40.504Z,5.80
2024-02-22T15:42:27.968Z,5.87
2024-02-22T15:45:16.465Z,5.80
2024-02-22T15:48:04.273Z,5.57
2024-02-22T15:50:52.207Z,5.90
2024-02-22T15:53:39.430Z,5.90
2024-02-22T15:56:29.119Z,5.90
2024-02-22T15:59:16.604Z,5.87
2024-02-22T16:02:04.292Z,6.20
2024-02-22T16:04:53.578Z,6.20
2024-02-22T16:07:42.764Z,6.23
2024-02-22T16:10:30.366Z,6.33
2024-02-22T16:13:17.769Z,5.97
2024-02-22T16:16:05.823Z,6.40
2024-02-22T16:18:57.724Z,6.47
2024-02-22T16:21:45.723Z,6.47
2024-02-22T16:24:35.221Z,7.00
2024-02-22T16:27:23.105Z,6.57
2024-02-22T16:30:11.146Z,6.87
2024-02-22T16:32:59.285Z,7.03
2024-02-22T16:35:46.982Z,6.63
2024-02-22T16:38:38.314Z,6.87
2024-02-22T16:41:32.163Z,6.93
2024-02-22T16:44:20.274Z,6.87
2024-02-22T16:47:15.653Z,7.00
2024-02-22T16:50:03.487Z,7.40
2024-02-22T16:52:51.175Z,6.60
2024-02-22T16:55:38.631Z,6.87
2024-02-22T16:58:26.063Z,7.07
2024-02-22T17:01:13.609Z,7.00
2024-02-22T17:04:01.363Z,6.60
2024-02-22T17:06:48.873Z,6.70
2024-02-22T17:09:36.382Z,6.90
2024-02-22T17:12:23.788Z,6.33
2024-02-22T17:15:11.476Z,6.20
2024-02-22T17:17:59.895Z,6.97
2024-02-22T17:20:47.563Z,6.90
2024-02-22T17:23:34.971Z,6.60
2024-02-22T17:26:22.383Z,7.07
2024-02-22T17:29:09.765Z,7.20
2024-02-22T17:31:57.222Z,6.40
2024-02-22T17:34:45.670Z,6.60
2024-02-22T17:37:33.026Z,7.03
2024-02-22T17:40:20.390Z,7.00
2024-02-22T17:43:07.815Z,7.30
2024-02-22T17:45:55.637Z,6.53
2024-02-22T17:48:43.660Z,7.23
2024-02-22T17:51:36.585Z,6.90
2024-02-22T17:54:28.363Z,7.50
2024-02-22T17:57:16.494Z,7.10
2024-02-22T18:00:06.684Z,7.00
2024-02-22T18:03:03.339Z,6.93
2024-02-22T18:05:52.368Z,6.93
2024-02-22T18:08:41.113Z,7.07
2024-02-22T18:11:29.427Z,7.07
2024-02-22T18:14:17.312Z,6.53
2024-02-22T18:17:06.274Z,7.27
2024-02-22T18:19:54.009Z,7.03
2024-02-22T18:22:41.389Z,6.93
2024-02-22T18:25:29.351Z,7.07
2024-02-22T18:28:16.642Z,6.70
2024-02-22T18:31:05.163Z,6.60
2024-02-22T18:33:52.791Z,6.70
2024-02-22T18:36:40.348Z,6.70
2024-02-22T18:39:27.936Z,6.40
2024-02-22T18:42:15.644Z,6.63
2024-02-22T18:45:04.166Z,6.80
2024-02-22T18:47:53.803Z,6.70
2024-02-22T18:50:43.949Z,6.67
2024-02-22T18:53:31.627Z,6.03
2024-02-22T18:56:19.005Z,6.43
2024-02-22T18:59:06.801Z,6.57
2024-02-22T19:01:54.185Z,6.03
2024-02-22T19:04:42.907Z,6.30
2024-02-22T19:07:31.789Z,6.27
2024-02-22T19:10:19.697Z,6.77
2024-02-22T19:13:08.278Z,6.93
2024-02-22T19:15:56.276Z,6.53
2024-02-22T19:18:43.660Z,6.33
2024-02-22T19:21:33.451Z,6.60
2024-02-22T19:24:21.282Z,6.80
2024-02-22T19:27:08.816Z,6.40
2024-02-22T19:29:56.478Z,7.70
2024-02-22T19:32:45.216Z,6.53
2024-02-22T19:35:32.779Z,6.93
2024-02-22T19:38:22.092Z,6.13
2024-02-22T19:41:09.690Z,6.60
2024-02-22T19:43:57.293Z,6.43
2024-02-22T19:46:45.167Z,6.60
2024-02-22T19:49:34.842Z,7.00
2024-02-22T19:52:22.736Z,7.17
2024-02-22T19:55:10.813Z,6.40
2024-02-22T19:58:01.891Z,6.47
2024-02-22T20:00:49.911Z,6.80
2024-02-22T20:03:38.702Z,7.13
2024-02-22T20:06:27.277Z,6.77
2024-02-22T20:09:15.311Z,6.77
2024-02-22T20:12:07.437Z,6.67
2024-02-22T20:14:56.014Z,7.03
2024-02-22T20:17:44.878Z,6.50
2024-02-22T20:20:33.133Z,6.80
2024-02-22T20:23:22.834Z,7.57
2024-02-22T20:26:10.735Z,6.87
2024-02-22T20:28:59.197Z,7.23
2024-02-22T20:31:50.945Z,7.47
2024-02-22T20:34:38.941Z,7.33
2024-02-22T20:37:26.737Z,7.30
2024-02-22T20:40:15.079Z,7.00
2024-02-22T20:43:03.308Z,7.13
2024-02-22T20:45:57.846Z,7.13
2024-02-22T20:48:46.578Z,7.23
2024-02-22T20:51:34.123Z,6.70
2024-02-22T20:54:22.977Z,7.27
2024-02-22T20:57:10.718Z,7.13
2024-02-22T20:59:58.197Z,7.00
2024-02-22T21:02:45.747Z,7.17
2024-02-22T21:05:35.967Z,6.90
2024-02-22T21:08:23.923Z,7.37
2024-02-22T21:11:11.699Z,6.83
2024-02-22T21:14:00.422Z,7.23
2024-02-22T21:16:48.260Z,6.90
2024-02-22T21:19:38.155Z,6.97
2024-02-22T21:22:29.482Z,7.10
2024-02-22T21:25:17.657Z,6.60
2024-02-22T21:28:05.763Z,6.73
2024-02-22T21:30:53.273Z,6.83
2024-02-22T21:33:41.921Z,6.83
2024-02-22T21:36:29.736Z,7.00
2024-02-22T21:39:17.533Z,7.00
2024-02-22T21:42:08.298Z,6.87
2024-02-22T21:44:55.662Z,6.97
2024-02-22T21:47:43.605Z,7.13
2024-02-22T21:50:31.262Z,7.77
2024-02-22T21:53:18.811Z,6.77
2024-02-22T21:56:07.555Z,7.00
2024-02-22T21:58:54.988Z,6.93
2024-02-22T22:01:42.689Z,7.20
2024-02-22T22:04:30.219Z,7.13
2024-02-22T22:07:17.509Z,6.63
2024-02-22T22:10:05.474Z,6.67
2024-02-22T22:12:52.804Z,7.23
2024-02-22T22:15:40.456Z,7.00
2024-02-22T22:18:28.175Z,6.93
2024-02-22T22:21:25.015Z,6.93
2024-02-22T22:24:16.340Z,7.13
2024-02-22T22:27:03.878Z,7.30
2024-02-22T22:29:51.581Z,7.00
2024-02-22T22:32:39.159Z,7.13
2024-02-22T22:35:26.801Z,7.53
2024-02-22T22:38:14.743Z,7.03
2024-02-22T22:41:02.540Z,7.37
2024-02-22T22:43:50.125Z,6.77
2024-02-22T22:46:37.676Z,7.33
2024-02-22T22:49:25.495Z,6.50
2024-02-22T22:52:13.378Z,7.10
2024-02-22T22:55:01.034Z,6.50
2024-02-22T22:57:48.483Z,7.50
2024-02-22T23:00:36.904Z,6.93
2024-02-22T23:03:27.916Z,6.97
2024-02-22T23:06:19.172Z,6.77
2024-02-22T23:09:06.513Z,7.13
2024-02-22T23:11:54.683Z,7.10
2024-02-22T23:14:42.120Z,7.63
2024-02-22T23:17:29.635Z,7.70
2024-02-22T23:20:17.197Z,6.90
2024-02-22T23:23:05.262Z,7.57
2024-02-22T23:25:53.248Z,7.30
2024-02-22T23:28:41.247Z,7.63
2024-02-22T23:31:31.958Z,7.17
2024-02-22T23:34:19.344Z,7.10
2024-02-22T23:37:07.152Z,7.53
2024-02-22T23:39:55.753Z,7.37
2024-02-22T23:42:43.026Z,7.70
2024-02-22T23:45:30.608Z,7.40
2024-02-22T23:48:18.187Z,7.60
2024-02-22T23:51:06.006Z,7.80
2024-02-22T23:53:54.216Z,8.17
2024-02-22T23:56:45.301Z,7.50
2024-02-22T23:59:32.894Z,7.90
